createdAt,value
2018-07-20T00:01:29.695Z,7.10
2018-07-20T00:03:57.949Z,6.83
2018-07-20T00:06:26.168Z,5.67
2018-07-20T00:08:54.420Z,10.47
2018-07-20T00:11:22.646Z,7.50
2018-07-20T00:13:51.257Z,6.70
2018-07-20T00:16:19.954Z,6.63
2018-07-20T00:18:48.153Z,9.17
2018-07-20T00:21:16.364Z,7.87
2018-07-20T00:23:44.590Z,8.40
2018-07-20T00:26:12.824Z,10.10
2018-07-20T00:28:41.021Z,7.93
2018-07-20T00:31:09.225Z,6.60
2018-07-20T00:33:37.461Z,6.67
2018-07-20T00:36:05.701Z,8.57
2018-07-20T00:38:33.929Z,7.13
2018-07-20T00:41:02.141Z,6.63
2018-07-20T00:43:30.385Z,7.93
2018-07-20T00:45:58.588Z,9.57
2018-07-20T00:48:26.800Z,7.33
2018-07-20T00:50:55.021Z,10.70
2018-07-20T00:53:23.225Z,6.83
2018-07-20T00:55:51.448Z,7.63
2018-07-20T00:58:19.695Z,6.60
2018-07-20T01:00:47.941Z,6.50
2018-07-20T01:03:16.165Z,6.93
2018-07-20T01:05:44.369Z,7.00
2018-07-20T01:08:12.604Z,6.00
2018-07-20T01:10:40.828Z,9.83
2018-07-20T01:13:09.056Z,6.67
2018-07-20T01:15:37.300Z,8.57
2018-07-20T01:18:05.533Z,8.87
2018-07-20T01:20:33.749Z,8.70
2018-07-20T01:23:01.948Z,8.17
2018-07-20T01:25:30.172Z,7.53
2018-07-20T01:27:58.397Z,7.43
2018-07-20T01:30:26.674Z,9.63
2018-07-20T01:32:54.918Z,11.10
2018-07-20T01:35:23.133Z,8.80
2018-07-20T01:37:51.410Z,8.70
2018-07-20T01:40:19.675Z,7.63
2018-07-20T01:42:47.916Z,9.10
2018-07-20T01:45:16.137Z,7.23
2018-07-20T01:47:44.356Z,8.13
2018-07-20T01:50:12.597Z,9.00
2018-07-20T01:52:40.949Z,7.27
2018-07-20T01:55:09.172Z,6.97
2018-07-20T01:57:37.396Z,6.77
2018-07-20T02:00:05.681Z,7.40
2018-07-20T02:02:33.920Z,6.57
2018-07-20T02:05:02.152Z,6.80
2018-07-20T02:07:30.366Z,7.17
2018-07-20T02:09:58.568Z,7.33
2018-07-20T02:12:26.776Z,6.50
2018-07-20T02:14:55.065Z,6.90
2018-07-20T02:17:23.268Z,5.30
2018-07-20T02:19:51.516Z,5.80
2018-07-20T02:22:19.733Z,5.37
2018-07-20T02:24:47.936Z,4.90
2018-07-20T02:27:16.169Z,5.93
2018-07-20T02:29:44.422Z,5.40
2018-07-20T02:32:12.671Z,5.00
2018-07-20T02:34:40.885Z,6.30
2018-07-20T02:37:09.137Z,5.23
2018-07-20T02:39:37.353Z,5.10
2018-07-20T02:42:05.585Z,5.40
2018-07-20T02:44:33.810Z,5.27
2018-07-20T02:47:02.073Z,5.63
2018-07-20T02:49:30.305Z,4.90
2018-07-20T02:51:58.533Z,5.03
2018-07-20T02:54:26.753Z,4.60
2018-07-20T02:56:54.965Z,5.50
2018-07-20T02:59:23.194Z,4.77
2018-07-20T03:01:51.421Z,5.80
2018-07-20T03:04:19.618Z,5.00
2018-07-20T03:06:47.825Z,5.50
2018-07-20T03:09:16.046Z,5.33
2018-07-20T03:11:44.553Z,6.70
2018-07-20T03:14:12.777Z,5.57
2018-07-20T03:16:41.005Z,5.90
2018-07-20T03:19:09.516Z,6.03
2018-07-20T03:21:37.746Z,8.40
2018-07-20T03:24:06.041Z,7.17
2018-07-20T03:26:34.277Z,7.20
2018-07-20T03:29:02.555Z,8.63
2018-07-20T03:31:30.771Z,8.07
2018-07-20T03:33:58.997Z,7.33
2018-07-20T03:36:27.212Z,9.20
2018-07-20T03:38:55.442Z,9.47
2018-07-20T03:41:23.664Z,9.83
2018-07-20T03:43:51.897Z,9.90
2018-07-20T03:46:20.176Z,9.03
2018-07-20T03:48:48.408Z,8.50
2018-07-20T03:51:16.629Z,9.47
2018-07-20T03:53:44.857Z,9.23
2018-07-20T03:56:13.088Z,14.93
2018-07-20T03:58:41.320Z,9.73
2018-07-20T04:01:09.532Z,10.13
2018-07-20T04:03:37.732Z,8.87
2018-07-20T04:06:05.979Z,11.07
2018-07-20T04:08:34.201Z,11.37
2018-07-20T04:11:02.501Z,10.93
2018-07-20T04:13:30.748Z,8.23
2018-07-20T04:15:58.985Z,11.83
2018-07-20T04:18:27.228Z,11.33
2018-07-20T04:20:55.488Z,13.43
2018-07-20T04:23:23.712Z,10.63
2018-07-20T04:25:51.936Z,10.57
2018-07-20T04:28:20.169Z,11.87
2018-07-20T04:30:48.388Z,13.10
2018-07-20T04:33:16.604Z,12.87
2018-07-20T04:35:44.836Z,11.50
2018-07-20T04:38:13.052Z,11.80
2018-07-20T04:40:41.288Z,12.20
2018-07-20T04:43:09.568Z,11.33
2018-07-20T04:45:37.809Z,13.80
2018-07-20T04:48:06.200Z,10.67
2018-07-20T04:50:34.526Z,12.07
2018-07-20T04:53:02.741Z,10.53
2018-07-20T04:55:30.957Z,11.87
2018-07-20T04:57:59.200Z,15.60
2018-07-20T05:00:27.417Z,11.20
2018-07-20T05:02:55.625Z,10.97
2018-07-20T05:05:23.828Z,12.37
2018-07-20T05:07:52.053Z,11.50
2018-07-20T05:10:20.268Z,11.27
2018-07-20T05:12:48.469Z,9.73
2018-07-20T05:15:16.686Z,12.93
2018-07-20T05:17:44.909Z,12.90
2018-07-20T05:20:13.144Z,10.03
2018-07-20T05:22:41.348Z,8.43
2018-07-20T05:25:10.430Z,9.73
2018-07-20T05:27:38.634Z,9.80
2018-07-20T05:30:07.773Z,13.43
2018-07-20T05:32:35.984Z,10.53
2018-07-20T05:35:04.205Z,11.37
2018-07-20T05:37:32.443Z,11.97
2018-07-20T05:40:00.660Z,11.13
2018-07-20T05:42:28.896Z,11.20
2018-07-20T05:44:57.115Z,10.13
2018-07-20T05:47:25.382Z,13.20
2018-07-20T05:49:53.592Z,14.27
2018-07-20T05:52:21.836Z,17.30
2018-07-20T05:54:50.150Z,16.37
2018-07-20T05:57:18.381Z,18.10
2018-07-20T05:59:46.829Z,16.87
2018-07-20T06:02:15.345Z,15.23
2018-07-20T06:04:43.613Z,14.90
2018-07-20T06:07:11.965Z,13.33
2018-07-20T06:09:40.180Z,15.07
2018-07-20T06:12:08.577Z,14.50
2018-07-20T06:14:36.785Z,13.30
2018-07-20T06:17:05.034Z,13.50
2018-07-20T06:19:33.340Z,15.67
2018-07-20T06:22:01.569Z,15.63
2018-07-20T06:24:29.824Z,15.83
2018-07-20T06:26:58.077Z,14.07
2018-07-20T06:29:26.313Z,13.83
2018-07-20T06:31:54.531Z,17.50
2018-07-20T06:34:22.792Z,15.50
2018-07-20T06:36:51.005Z,16.37
2018-07-20T06:39:19.252Z,13.83
2018-07-20T06:41:47.469Z,14.77
2018-07-20T06:44:15.756Z,14.10
2018-07-20T06:46:43.985Z,16.97
2018-07-20T06:49:12.192Z,14.20
2018-07-20T06:51:40.450Z,14.40
2018-07-20T06:54:08.688Z,18.47
2018-07-20T06:56:36.945Z,14.57
2018-07-20T06:59:05.196Z,15.90
2018-07-20T07:01:33.666Z,15.37
2018-07-20T07:04:01.913Z,16.50
2018-07-20T07:06:30.144Z,18.93
2018-07-20T07:08:58.616Z,16.40
2018-07-20T07:11:26.852Z,17.07
2018-07-20T07:13:55.105Z,16.80
2018-07-20T07:16:23.346Z,19.37
2018-07-20T07:18:51.572Z,16.33
2018-07-20T07:21:19.818Z,25.97
2018-07-20T07:23:48.053Z,17.10
2018-07-20T07:26:16.261Z,22.33
2018-07-20T07:28:44.502Z,19.83
2018-07-20T07:31:12.706Z,18.17
2018-07-20T07:33:40.932Z,20.00
2018-07-20T07:36:09.172Z,14.77
2018-07-20T07:38:37.399Z,16.80
2018-07-20T07:41:05.620Z,15.73
2018-07-20T07:43:33.844Z,19.77
2018-07-20T07:46:02.118Z,19.83
2018-07-20T07:48:30.345Z,16.67
2018-07-20T07:50:58.669Z,18.67
2018-07-20T07:53:26.944Z,16.97
2018-07-20T07:55:55.176Z,17.90
2018-07-20T07:58:23.416Z,22.23
2018-07-20T08:00:51.624Z,20.83
2018-07-20T08:03:19.940Z,15.97
2018-07-20T08:05:48.153Z,17.93
2018-07-20T08:08:16.376Z,17.90
2018-07-20T08:10:44.637Z,16.60
2018-07-20T08:13:12.856Z,16.53
2018-07-20T08:15:41.120Z,17.50
2018-07-20T08:18:09.318Z,18.27
2018-07-20T08:20:37.536Z,24.23
2018-07-20T08:23:05.809Z,17.50
2018-07-20T08:25:34.069Z,20.07
2018-07-20T08:28:02.309Z,19.43
2018-07-20T08:30:30.725Z,19.00
2018-07-20T08:32:58.957Z,23.07
2018-07-20T08:35:27.244Z,17.67
2018-07-20T08:37:55.700Z,16.80
2018-07-20T08:40:23.929Z,21.57
2018-07-20T08:42:52.504Z,16.03
2018-07-20T08:45:20.760Z,20.07
2018-07-20T08:47:48.976Z,16.70
2018-07-20T08:50:17.227Z,16.83
2018-07-20T08:52:45.552Z,20.30
2018-07-20T08:55:13.864Z,15.23
2018-07-20T08:57:42.106Z,18.27
2018-07-20T09:00:10.330Z,15.40
2018-07-20T09:02:38.592Z,16.37
2018-07-20T09:05:06.828Z,22.30
2018-07-20T09:07:35.144Z,17.67
2018-07-20T09:10:03.398Z,21.73
2018-07-20T09:12:31.685Z,23.30
2018-07-20T09:15:00.018Z,17.27
2018-07-20T09:17:28.344Z,18.53
2018-07-20T09:19:56.565Z,20.83
2018-07-20T09:22:24.852Z,16.47
2018-07-20T09:24:53.081Z,19.97
2018-07-20T09:27:21.346Z,17.57
2018-07-20T09:29:49.569Z,15.30
2018-07-20T09:32:17.805Z,15.77
2018-07-20T09:34:46.029Z,15.40
2018-07-20T09:37:14.241Z,17.13
2018-07-20T09:39:42.478Z,13.63
2018-07-20T09:42:10.925Z,18.00
2018-07-20T09:44:39.220Z,19.97
2018-07-20T09:47:07.444Z,15.83
2018-07-20T09:49:35.813Z,15.47
2018-07-20T09:52:04.037Z,17.70
2018-07-20T09:54:32.273Z,15.20
2018-07-20T09:57:00.493Z,14.10
2018-07-20T09:59:28.744Z,12.40
2018-07-20T10:01:57.065Z,14.17
2018-07-20T10:04:25.292Z,10.07
2018-07-20T10:06:53.536Z,17.47
2018-07-20T10:09:21.788Z,12.40
2018-07-20T10:11:50.049Z,14.87
2018-07-20T10:14:18.266Z,17.17
2018-07-20T10:16:46.480Z,13.23
2018-07-20T10:19:14.783Z,11.90
2018-07-20T10:21:42.993Z,18.67
2018-07-20T10:24:11.252Z,13.40
2018-07-20T10:26:39.564Z,10.87
2018-07-20T10:29:07.805Z,15.40
2018-07-20T10:31:36.035Z,15.00
2018-07-20T10:34:04.253Z,13.83
2018-07-20T10:36:32.502Z,17.03
2018-07-20T10:39:00.741Z,11.20
2018-07-20T10:41:28.952Z,12.60
2018-07-20T10:43:57.185Z,13.33
2018-07-20T10:46:25.422Z,13.93
2018-07-20T10:48:53.657Z,15.97
2018-07-20T10:51:21.888Z,13.90
2018-07-20T10:53:50.105Z,13.97
2018-07-20T10:56:18.329Z,13.27
2018-07-20T10:58:46.541Z,10.07
2018-07-20T11:01:14.812Z,16.07
2018-07-20T11:03:43.012Z,9.43
2018-07-20T11:06:11.261Z,13.67
2018-07-20T11:08:39.469Z,13.73
2018-07-20T11:11:08.236Z,13.33
2018-07-20T11:13:36.570Z,12.20
2018-07-20T11:16:04.805Z,11.53
2018-07-20T11:18:33.033Z,14.43
2018-07-20T11:21:01.345Z,13.17
2018-07-20T11:23:29.556Z,8.53
2018-07-20T11:25:57.789Z,15.40
2018-07-20T11:28:26.001Z,8.87
2018-07-20T11:30:54.256Z,12.83
2018-07-20T11:33:22.568Z,11.77
2018-07-20T11:35:50.810Z,9.63
2018-07-20T11:38:19.020Z,7.93
2018-07-20T11:40:47.285Z,9.07
2018-07-20T11:43:15.518Z,10.30
2018-07-20T11:45:43.748Z,9.20
2018-07-20T11:48:11.957Z,9.57
2018-07-20T11:50:40.168Z,11.43
2018-07-20T11:53:08.404Z,10.53
2018-07-20T11:55:36.627Z,11.57
2018-07-20T11:58:04.880Z,10.50
2018-07-20T12:00:33.112Z,9.00
2018-07-20T12:03:01.354Z,9.43
2018-07-20T12:05:29.568Z,11.23
2018-07-20T12:07:57.800Z,8.73
2018-07-20T12:10:26.017Z,12.83
2018-07-20T12:12:54.244Z,8.87
2018-07-20T12:15:22.468Z,10.57
2018-07-20T12:17:50.700Z,9.00
2018-07-20T12:20:18.909Z,13.13
2018-07-20T12:22:47.170Z,6.27
2018-07-20T12:25:15.391Z,12.03
2018-07-20T12:27:43.764Z,13.57
2018-07-20T12:30:12.001Z,7.90
2018-07-20T12:32:40.203Z,9.83
2018-07-20T12:35:08.453Z,10.73
2018-07-20T12:37:36.664Z,7.83
2018-07-20T12:40:04.987Z,10.27
2018-07-20T12:42:33.304Z,13.23
2018-07-20T12:45:01.458Z,10.53
2018-07-20T12:47:29.685Z,9.00
2018-07-20T12:49:57.901Z,8.00
2018-07-20T12:52:26.121Z,9.70
2018-07-20T12:54:54.365Z,10.10
2018-07-20T12:57:22.597Z,10.30
2018-07-20T12:59:50.829Z,8.43
2018-07-20T13:02:19.077Z,8.57
2018-07-20T13:04:47.307Z,9.23
2018-07-20T13:07:15.551Z,7.07
2018-07-20T13:09:43.797Z,9.67
2018-07-20T13:12:12.030Z,7.67
2018-07-20T13:14:40.244Z,11.03
2018-07-20T13:17:08.494Z,12.40
2018-07-20T13:19:36.697Z,11.73
2018-07-20T13:22:04.933Z,10.27
2018-07-20T13:24:33.161Z,11.47
2018-07-20T13:27:01.641Z,10.57
2018-07-20T13:29:29.852Z,9.90
2018-07-20T13:31:58.081Z,8.67
2018-07-20T13:34:26.300Z,7.90
2018-07-20T13:36:54.537Z,12.40
2018-07-20T13:39:22.804Z,7.83
2018-07-20T13:41:51.057Z,7.27
2018-07-20T13:44:19.276Z,11.73
2018-07-20T13:46:47.521Z,9.10
2018-07-20T13:49:15.749Z,8.10
2018-07-20T13:51:43.972Z,10.43
2018-07-20T13:54:12.217Z,9.10
2018-07-20T13:56:40.436Z,10.20
2018-07-20T13:59:08.672Z,7.60
2018-07-20T14:01:36.908Z,8.37
2018-07-20T14:04:05.183Z,10.27
2018-07-20T14:06:33.388Z,8.13
2018-07-20T14:09:01.614Z,7.93
2018-07-20T14:11:29.850Z,6.83
2018-07-20T14:13:58.055Z,5.00
2018-07-20T14:16:26.286Z,10.97
2018-07-20T14:18:54.528Z,8.40
2018-07-20T14:21:22.738Z,9.27
2018-07-20T14:23:50.961Z,8.30
2018-07-20T14:26:19.227Z,8.13
2018-07-20T14:28:47.408Z,8.43
2018-07-20T14:31:15.636Z,6.80
2018-07-20T14:33:43.862Z,17.07
2018-07-20T14:36:12.124Z,7.73
2018-07-20T14:38:40.350Z,9.00
2018-07-20T14:41:08.577Z,6.50
2018-07-20T14:43:36.797Z,7.27
2018-07-20T14:46:05.149Z,9.37
2018-07-20T14:48:33.358Z,9.50
2018-07-20T14:51:01.579Z,8.40
2018-07-20T14:53:29.801Z,5.30
2018-07-20T14:55:58.046Z,7.47
2018-07-20T14:58:26.293Z,7.83
2018-07-20T15:00:54.532Z,6.00
2018-07-20T15:03:22.741Z,7.13
2018-07-20T15:05:50.944Z,5.20
2018-07-20T15:08:19.172Z,5.33
2018-07-20T15:10:47.384Z,6.20
2018-07-20T15:13:15.681Z,8.23
2018-07-20T15:15:43.900Z,5.33
2018-07-20T15:18:12.117Z,4.20
2018-07-20T15:20:40.346Z,5.77
2018-07-20T15:23:08.612Z,8.00
2018-07-20T15:25:37.052Z,15.63
2018-07-20T15:28:05.373Z,8.40
2018-07-20T15:30:33.632Z,5.03
2018-07-20T15:33:01.856Z,5.87
2018-07-20T15:35:30.068Z,5.83
2018-07-20T15:37:58.278Z,4.77
2018-07-20T15:40:26.537Z,6.57
2018-07-20T15:42:54.801Z,3.90
2018-07-20T15:45:23.049Z,5.07
2018-07-20T15:47:51.301Z,10.47
2018-07-20T15:50:19.516Z,5.60
2018-07-20T15:53:35.719Z,7.17
2018-07-20T15:55:16.003Z,4.63
2018-07-20T15:57:44.248Z,4.33
2018-07-20T16:00:12.501Z,7.83
2018-07-20T16:02:40.749Z,4.20
2018-07-20T16:05:08.985Z,4.93
2018-07-20T16:07:37.237Z,4.80
2018-07-20T16:10:05.496Z,5.77
2018-07-20T16:12:33.729Z,7.63
2018-07-20T16:15:01.967Z,6.13
2018-07-20T16:17:30.186Z,7.73
2018-07-20T16:19:58.425Z,4.53
2018-07-20T16:22:26.709Z,5.10
2018-07-20T16:24:54.940Z,5.50
2018-07-20T16:27:23.157Z,4.33
2018-07-20T16:29:51.380Z,5.63
2018-07-20T16:32:19.649Z,4.60
2018-07-20T16:34:47.893Z,6.63
2018-07-20T16:37:16.136Z,6.80
2018-07-20T16:39:44.348Z,5.17
2018-07-20T16:42:12.592Z,4.80
2018-07-20T16:44:40.832Z,6.33
2018-07-20T16:47:09.090Z,6.00
2018-07-20T16:49:37.315Z,5.53
2018-07-20T16:52:05.540Z,6.23
2018-07-20T16:54:33.753Z,4.30
2018-07-20T16:57:01.964Z,6.17
2018-07-20T16:59:30.200Z,5.77
2018-07-20T17:01:58.412Z,6.37
2018-07-20T17:04:26.649Z,5.27
2018-07-20T17:06:54.877Z,4.33
2018-07-20T17:09:23.100Z,5.33
2018-07-20T17:11:51.319Z,4.60
2018-07-20T17:14:19.545Z,8.77
2018-07-20T17:16:47.756Z,6.60
2018-07-20T17:19:15.995Z,5.47
2018-07-20T17:21:44.244Z,5.57
2018-07-20T17:24:12.477Z,5.03
2018-07-20T17:26:40.704Z,5.07
2018-07-20T17:29:08.941Z,4.77
2018-07-20T17:31:37.157Z,6.37
2018-07-20T17:34:05.429Z,7.53
2018-07-20T17:36:33.660Z,4.80
2018-07-20T17:39:02.050Z,4.60
2018-07-20T17:41:30.273Z,5.87
2018-07-20T17:43:58.469Z,7.73
2018-07-20T17:46:26.734Z,5.83
2018-07-20T17:48:54.946Z,5.97
2018-07-20T17:51:23.164Z,5.63
2018-07-20T17:53:51.408Z,9.80
2018-07-20T17:56:19.664Z,5.23
2018-07-20T17:58:47.845Z,6.43
2018-07-20T18:01:16.253Z,6.03
2018-07-20T18:03:44.518Z,14.23
2018-07-20T18:06:12.845Z,7.47
2018-07-20T18:08:41.048Z,6.90
2018-07-20T18:11:09.277Z,6.03
2018-07-20T18:13:37.509Z,6.87
2018-07-20T18:16:05.860Z,5.43
2018-07-20T18:18:34.070Z,7.40
2018-07-20T18:21:02.305Z,6.20
2018-07-20T18:23:30.549Z,7.43
2018-07-20T18:25:58.765Z,7.43
2018-07-20T18:28:26.970Z,8.43
2018-07-20T18:30:55.193Z,9.13
2018-07-20T18:33:23.420Z,7.37
2018-07-20T18:35:51.660Z,6.40
2018-07-20T18:38:19.884Z,7.23
2018-07-20T18:40:48.137Z,5.80
2018-07-20T18:43:16.389Z,6.10
2018-07-20T18:45:44.625Z,8.67
2018-07-20T18:48:12.827Z,9.50
2018-07-20T18:50:41.060Z,6.30
2018-07-20T18:53:09.263Z,6.47
2018-07-20T18:55:37.481Z,8.33
2018-07-20T18:58:05.726Z,6.63
2018-07-20T19:00:33.945Z,6.87
2018-07-20T19:03:02.169Z,9.03
2018-07-20T19:05:30.385Z,7.33
2018-07-20T19:07:58.622Z,6.47
2018-07-20T19:10:26.829Z,7.53
2018-07-20T19:12:55.041Z,8.70
2018-07-20T19:15:23.341Z,7.50
2018-07-20T19:17:51.604Z,8.73
2018-07-20T19:20:19.842Z,7.87
2018-07-20T19:22:48.073Z,10.10
2018-07-20T19:25:16.333Z,7.07
2018-07-20T19:27:44.637Z,8.13
2018-07-20T19:30:12.909Z,7.13
2018-07-20T19:32:41.171Z,9.43
2018-07-20T19:35:09.343Z,7.30
2018-07-20T19:37:37.565Z,7.63
2018-07-20T19:40:05.787Z,7.40
2018-07-20T19:42:34.018Z,7.00
2018-07-20T19:45:02.245Z,8.70
2018-07-20T19:47:30.546Z,9.47
2018-07-20T19:49:58.761Z,6.70
2018-07-20T19:52:27.002Z,7.50
2018-07-20T19:54:55.253Z,5.87
2018-07-20T19:57:23.488Z,7.03
2018-07-20T19:59:51.709Z,6.43
2018-07-20T20:02:19.921Z,7.20
2018-07-20T20:04:48.165Z,5.60
2018-07-20T20:07:16.377Z,8.63
2018-07-20T20:09:44.825Z,6.47
2018-07-20T20:12:13.525Z,6.40
2018-07-20T20:14:41.780Z,8.33
2018-07-20T20:17:10.016Z,7.50
2018-07-20T20:19:38.252Z,7.67
2018-07-20T20:22:06.773Z,6.67
2018-07-20T20:24:35.000Z,6.80
2018-07-20T20:27:03.320Z,10.47
2018-07-20T20:29:31.581Z,8.40
2018-07-20T20:31:59.810Z,5.80
2018-07-20T20:34:28.025Z,8.00
2018-07-20T20:36:56.254Z,6.50
2018-07-20T20:39:24.465Z,6.73
2018-07-20T20:41:52.670Z,7.17
2018-07-20T20:44:20.903Z,8.63
2018-07-20T20:46:49.166Z,10.67
2018-07-20T20:49:17.416Z,5.90
2018-07-20T20:51:45.697Z,7.00
2018-07-20T20:54:13.952Z,7.33
2018-07-20T20:56:42.164Z,6.27
2018-07-20T20:59:10.450Z,6.27
2018-07-20T21:01:38.652Z,6.97
2018-07-20T21:04:06.872Z,5.83
2018-07-20T21:06:35.104Z,6.80
2018-07-20T21:09:03.456Z,5.53
2018-07-20T21:11:31.677Z,7.30
2018-07-20T21:13:59.918Z,6.20
2018-07-20T21:16:28.132Z,8.40
2018-07-20T21:18:56.376Z,4.50
2018-07-20T21:21:24.685Z,6.80
2018-07-20T21:23:52.907Z,4.10
2018-07-20T21:26:21.117Z,6.23
2018-07-20T21:28:49.344Z,6.47
2018-07-20T21:31:17.589Z,7.90
2018-07-20T21:33:45.815Z,5.33
2018-07-20T21:36:14.049Z,7.30
2018-07-20T21:38:42.284Z,5.63
2018-07-20T21:41:10.532Z,5.53
2018-07-20T21:43:38.805Z,4.80
2018-07-20T21:46:07.138Z,5.77
2018-07-20T21:48:35.462Z,6.50
2018-07-20T21:51:03.628Z,5.43
2018-07-20T21:53:31.869Z,6.53
2018-07-20T21:56:00.128Z,5.10
2018-07-20T21:58:28.344Z,8.37
2018-07-20T22:00:56.582Z,6.30
2018-07-20T22:03:24.869Z,8.03
2018-07-20T22:05:53.100Z,4.90
2018-07-20T22:08:21.343Z,5.30
2018-07-20T22:10:49.569Z,5.57
2018-07-20T22:13:17.789Z,7.60
2018-07-20T22:15:46.004Z,6.43
2018-07-20T22:18:14.217Z,7.93
2018-07-20T22:20:42.513Z,8.40
2018-07-20T22:23:10.788Z,6.47
2018-07-20T22:25:39.007Z,7.53
2018-07-20T22:28:07.669Z,6.83
2018-07-20T22:30:35.889Z,6.87
2018-07-20T22:33:04.117Z,7.97
2018-07-20T22:35:32.360Z,9.00
2018-07-20T22:38:00.604Z,6.77
2018-07-20T22:40:28.825Z,7.23
2018-07-20T22:42:57.045Z,8.53
2018-07-20T22:45:25.296Z,8.23
2018-07-20T22:47:53.507Z,7.20
2018-07-20T22:50:21.745Z,7.20
2018-07-20T22:52:49.978Z,6.30
2018-07-20T22:55:18.213Z,6.00
2018-07-20T22:57:46.472Z,6.53
2018-07-20T23:00:14.733Z,10.57
2018-07-20T23:02:43.008Z,10.53
2018-07-20T23:05:11.221Z,8.57
2018-07-20T23:07:39.432Z,7.13
2018-07-20T23:10:07.688Z,10.33
2018-07-20T23:12:35.900Z,11.00
2018-07-20T23:15:04.688Z,6.67
2018-07-20T23:17:32.925Z,11.30
2018-07-20T23:20:01.133Z,9.67
2018-07-20T23:22:29.416Z,7.80
2018-07-20T23:24:57.936Z,9.40
2018-07-20T23:27:26.181Z,8.10
2018-07-20T23:29:54.384Z,10.23
2018-07-20T23:32:22.640Z,9.40
2018-07-20T23:34:50.865Z,9.13
2018-07-20T23:37:19.084Z,8.97
2018-07-20T23:39:47.381Z,7.67
2018-07-20T23:42:15.616Z,8.83
2018-07-20T23:44:43.845Z,10.07
2018-07-20T23:47:12.109Z,6.37
2018-07-20T23:49:40.341Z,8.87
2018-07-20T23:52:08.549Z,8.43
2018-07-20T23:54:36.797Z,6.80
2018-07-20T23:57:05.021Z,8.90
2018-07-20T23:59:33.283Z,10.93
